| time (UTC) | temp C | wind direction | speed KPH | gust KPH | rain 1hr cm | rain 24hr cm | rain mn cm | humidity % | barometer mb |
| 20260510190045 | 17 | 71 | 1.6 | 12.9 | 0.00 | 0.00 | 0.00 | 42 | 1019.9 |
| 20260510184542 | 17 | 342 | 0.0 | 9.7 | 0.00 | 0.00 | 0.00 | 44 | 1019.9 |
| 20260510183046 | 16 | 6 | 3.2 | 19.3 | 0.00 | 0.00 | 0.00 | 45 | 1019.7 |
| 20260510181548 | 17 | 331 | 8.0 | 20.9 | 0.00 | 0.00 | 0.00 | 41 | 1019.7 |
| 20260510180042 | 17 | 8 | 9.7 | 20.9 | 0.00 | 0.00 | 0.00 | 40 | 1019.6 |
| 20260510174545 | 17 | 353 | 9.7 | 17.7 | 0.00 | 0.00 | 0.00 | 39 | 1019.6 |
| 20260510173039 | 17 | 68 | 8.0 | 16.1 | 0.00 | 0.00 | 0.00 | 42 | 1019.6 |
| 20260510171535 | 17 | 354 | 1.6 | 16.1 | 0.00 | 0.00 | 0.00 | 43 | 1019.7 |
| 20260510170036 | 17 | 5 | 9.7 | 19.3 | 0.00 | 0.00 | 0.00 | 43 | 1019.8 |
| 20260510164546 | 16 | 331 | 4.8 | 11.3 | 0.00 | 0.00 | 0.00 | 46 | 1019.7 |
| 20260510163031 | 16 | 20 | 4.8 | 12.9 | 0.00 | 0.00 | 0.00 | 45 | 1019.8 |
| 20260510161529 | 16 | 21 | 6.4 | 19.3 | 0.00 | 0.00 | 0.00 | 43 | 1019.6 |
| 20260510160027 | 16 | 46 | 1.6 | 12.9 | 0.00 | 0.00 | 0.00 | 47 | 1019.5 |
| 20260510154526 | 16 | 319 | 6.4 | 19.3 | 0.00 | 0.00 | 0.00 | 49 | 1019.5 |
| 20260510153036 | 16 | 11 | 4.8 | 20.9 | 0.00 | 0.00 | 0.00 | 50 | 1019.6 |
| 20260510151522 | 16 | 63 | 6.4 | 16.1 | 0.00 | 0.00 | 0.00 | 50 | 1019.5 |
| 20260510150021 | 16 | 271 | 4.8 | 14.5 | 0.00 | 0.00 | 0.00 | 52 | 1019.5 |
| 20260510144533 | 16 | 328 | 6.4 | 20.9 | 0.00 | 0.00 | 0.00 | 49 | 1019.3 |
| 20260510143018 | 16 | 34 | 4.8 | 14.5 | 0.00 | 0.00 | 0.00 | 50 | 1019.1 |
| 20260510141516 | 16 | 30 | 9.7 | 16.1 | 0.00 | 0.00 | 0.00 | 50 | 1018.8 |
| 20260510140014 | 15 | 356 | 6.4 | 16.1 | 0.00 | 0.00 | 0.00 | 52 | 1018.6 |
| 20260510134511 | 15 | 56 | 4.8 | 17.7 | 0.00 | 0.00 | 0.00 | 54 | 1018.3 |
| 20260510133013 | 15 | 41 | 4.8 | 14.5 | 0.00 | 0.00 | 0.00 | 55 | 1018.2 |
| 20260510131507 | 14 | 5 | 6.4 | 16.1 | 0.00 | 0.00 | 0.00 | 58 | 1018.0 |
| 20260510130005 | 13 | 29 | 3.2 | 11.3 | 0.00 | 0.00 | 0.00 | 63 | 1017.5 |
| 20260510124503 | 13 | 37 | 3.2 | 9.7 | 0.00 | 0.00 | 0.00 | 67 | 1017.7 |
| 20260510123003 | 12 | 4 | 3.2 | 9.7 | 0.00 | 0.00 | 0.00 | 69 | 1017.6 |
| 20260510121600 | 12 | 8 | 3.2 | 8.0 | 0.00 | 0.00 | 0.00 | 69 | 1017.4 |
| 20260510120056 | 12 | 3 | 1.6 | 4.8 | 0.00 | 0.00 | 0.00 | 68 | 1017.0 |
| 20260510114603 | -17 | 0.0 | 0.0 | 0.00 | 0.00 | 0.00 | 1016.6 | ||
| 20260510113049 | -17 | 0.0 | 0.0 | 0.00 | 0.00 | 0.00 | 1016.5 | ||
| 20260510111543 | -17 | 0.0 | 0.0 | 0.00 | 0.00 | 0.00 | 1016.3 | ||
| 20260510110043 | -17 | 0.0 | 0.0 | 0.00 | 0.00 | 0.00 | 1016.1 | ||
| 20260510104535 | -17 | 0.0 | 0.0 | 0.00 | 0.00 | 0.00 | 1015.7 | ||
| 20260510103039 | -17 | 0.0 | 0.0 | 0.00 | 0.00 | 0.00 | 1015.4 | ||
| 20260510101525 | -17 | 0.0 | 0.0 | 0.00 | 0.00 | 0.00 | 1014.9 | ||
| 20260510100021 | -17 | 0.0 | 0.0 | 0.00 | 0.00 | 0.00 | 1014.8 | ||
| 20260510094518 | -17 | 0.0 | 0.0 | 0.00 | 0.00 | 0.00 | 1014.6 | ||
| 20260510093113 | 13 | 331 | 3.2 | 11.3 | 0.00 | 0.00 | 0.00 | 90 | 1014.5 |
| 20260510091508 | 14 | 22 | 4.8 | 9.7 | 0.00 | 0.00 | 0.00 | 93 | 1014.0 |
| 20260510090008 | 14 | 350 | 1.6 | 6.4 | 0.00 | 0.00 | 0.00 | 94 | 1013.9 |
| 20260510084510 | 14 | 34 | 3.2 | 6.4 | 0.00 | 0.00 | 0.00 | 94 | 1013.7 |
| 20260510083005 | 14 | 31 | 4.8 | 8.0 | 0.00 | 0.00 | 0.00 | 94 | 1013.7 |
| 20260510081503 | 14 | 27 | 0.0 | 4.8 | 0.00 | 0.00 | 0.00 | 93 | 1013.6 |
| 20260510080002 | 14 | 21 | 0.0 | 4.8 | 0.00 | 0.00 | 0.00 | 92 | 1013.5 |
| 20260510074619 | 14 | 49 | 0.0 | 3.2 | 0.00 | 0.00 | 0.00 | 92 | 1013.0 |
| 20260510073057 | 15 | 293 | 0.0 | 0.0 | 0.00 | 0.00 | 0.00 | 91 | 1013.0 |
| 20260510071600 | 15 | 37 | 0.0 | 3.2 | 0.00 | 0.00 | 0.00 | 91 | 1012.7 |
| 20260510070052 | 15 | 30 | 0.0 | 0.0 | 0.00 | 0.00 | 0.00 | 91 | 1013.0 |
| 20260510064608 | 15 | 15 | 0.0 | 1.6 | 0.00 | 0.00 | 0.00 | 91 | 1013.1 |
| 20260510063056 | 15 | 281 | 0.0 | 8.0 | 0.00 | 0.00 | 0.00 | 90 | 1013.0 |
| 20260510061548 | 16 | 48 | 1.6 | 6.4 | 0.00 | 0.00 | 0.00 | 89 | 1013.0 |
| 20260510060055 | 16 | 347 | 3.2 | 9.7 | 0.00 | 0.00 | 0.00 | 89 | 1013.0 |
| 20260510054544 | 16 | 321 | 1.6 | 8.0 | 0.00 | 0.00 | 0.00 | 88 | 1012.7 |
| 20260510053042 | 16 | 356 | 0.0 | 4.8 | 0.00 | 0.00 | 0.00 | 87 | 1012.6 |
| 20260510051551 | 16 | 326 | 0.0 | 0.0 | 0.00 | 0.00 | 0.00 | 85 | 1012.1 |
| 20260510050038 | 16 | 327 | 0.0 | 0.0 | 0.00 | 0.00 | 0.00 | 85 | 1012.0 |
| 20260510044540 | 16 | 322 | 0.0 | 3.2 | 0.00 | 0.03 | 0.00 | 85 | 1011.8 |
| 20260510043039 | 17 | 61 | 0.0 | 0.0 | 0.00 | 0.03 | 0.00 | 82 | 1011.4 |
| 20260510041535 | 17 | 64 | 0.0 | 0.0 | 0.00 | 0.03 | 0.00 | 81 | 1011.1 |
| 20260510040031 | 17 | 24 | 0.0 | 0.0 | 0.00 | 0.03 | 0.00 | 80 | 1011.3 |
| 20260510034529 | 17 | 49 | 0.0 | 3.2 | 0.00 | 0.03 | 0.00 | 78 | 1011.1 |
| 20260510033030 | 18 | 351 | 0.0 | 4.8 | 0.00 | 0.03 | 0.00 | 77 | 1011.0 |
| 20260510031526 | 18 | 317 | 3.2 | 9.7 | 0.00 | 0.03 | 0.00 | 74 | 1011.0 |
| 20260510030025 | 18 | 11 | 3.2 | 8.0 | 0.00 | 0.03 | 0.00 | 72 | 1010.9 |
| 20260510024523 | 19 | 340 | 4.8 | 12.9 | 0.00 | 0.25 | 0.00 | 70 | 1010.6 |
| 20260510023020 | 20 | 332 | 6.4 | 17.7 | 0.00 | 0.25 | 0.00 | 66 | 1010.3 |
| 20260510021517 | 20 | 345 | 8.0 | 22.5 | 0.00 | 0.25 | 0.00 | 63 | 1009.9 |
| 20260510020016 | 21 | 186 | 0.0 | 0.0 | 0.00 | 0.25 | 0.00 | 55 | 1008.6 |
| 20260510014521 | 21 | 186 | 0.0 | 3.2 | 0.00 | 0.91 | 0.00 | 54 | 1008.4 |
| 20260510013015 | 22 | 126 | 0.0 | 0.0 | 0.00 | 0.91 | 0.00 | 54 | 1008.1 |
| 20260510011521 | 22 | 126 | 0.0 | 0.0 | 0.00 | 0.91 | 0.00 | 54 | 1008.0 |
| 20260510010013 | 23 | 125 | 0.0 | 0.0 | 0.00 | 0.91 | 0.00 | 51 | 1007.9 |
| 20260510004513 | 23 | 222 | 0.0 | 0.0 | 0.00 | 1.12 | 0.00 | 50 | 1007.9 |
| 20260510003012 | 24 | 222 | 0.0 | 0.0 | 0.00 | 1.12 | 0.00 | 50 | 1007.9 |
| 20260510001511 | 25 | 222 | 0.0 | 0.0 | 0.00 | 1.12 | 0.00 | 47 | 1007.9 |
| 20260510000010 | 26 | 224 | 0.0 | 0.0 | 0.00 | 1.12 | 0.00 | 44 | 1007.8 |
| 20260509234510 | 26 | 224 | 0.0 | 1.6 | 0.00 | 1.14 | 0.00 | 44 | 1007.7 |
| 20260509233009 | 26 | 64 | 0.0 | 4.8 | 0.00 | 1.14 | 0.00 | 45 | 1007.8 |
| 20260509231509 | 25 | 290 | 0.0 | 1.6 | 0.00 | 1.14 | 0.00 | 41 | 1007.8 |
| 20260509230008 | 26 | 319 | 1.6 | 4.8 | 0.00 | 1.14 | 0.00 | 39 | 1007.8 |
| 20260509224507 | 26 | 299 | 1.6 | 9.7 | 0.00 | 1.17 | 0.00 | 37 | 1007.7 |
| 20260509223006 | 27 | 269 | 4.8 | 16.1 | 0.00 | 1.17 | 0.00 | 34 | 1007.7 |
| 20260509221515 | 27 | 260 | 0.0 | 6.4 | 0.00 | 1.17 | 0.00 | 37 | 1007.8 |
| 20260509220002 | 27 | 308 | 0.0 | 11.3 | 0.00 | 1.17 | 0.00 | 37 | 1007.8 |
| 20260509214502 | 27 | 276 | 1.6 | 17.7 | 0.00 | 1.17 | 0.00 | 37 | 1007.8 |
| 20260509213103 | 27 | 262 | 0.0 | 8.0 | 0.00 | 1.17 | 0.00 | 37 | 1007.9 |
| 20260509211558 | 27 | 264 | 0.0 | 1.6 | 0.00 | 1.17 | 0.00 | 38 | 1008.0 |
| 20260509210101 | 26 | 302 | 4.8 | 12.9 | 0.00 | 1.17 | 0.00 | 36 | 1008.2 |
| 20260509204559 | 26 | 305 | 4.8 | 9.7 | 0.00 | 1.17 | 0.00 | 38 | 1008.3 |
| 20260509203055 | 27 | 268 | 1.6 | 6.4 | 0.00 | 1.17 | 0.00 | 39 | 1008.5 |
| 20260509201551 | 26 | 333 | 0.0 | 4.8 | 0.00 | 1.17 | 0.00 | 41 | 1008.4 |
| 20260509200048 | 26 | 317 | 3.2 | 11.3 | 0.00 | 1.17 | 0.00 | 43 | 1008.6 |
| 20260509194546 | 26 | 282 | 3.2 | 11.3 | 0.00 | 1.17 | 0.00 | 44 | 1008.7 |
| 20260509193051 | 26 | 285 | 1.6 | 14.5 | 0.00 | 1.17 | 0.00 | 43 | 1008.8 |
| 20260509191605 | 25 | 264 | 1.6 | 11.3 | 0.00 | 1.17 | 0.00 | 45 | 1008.8 |